Share

Dammam King Fahd, Saudi Arabia

King Fahd International (OEDF) Elev 39 ft | 26.43 °N, 49.80 °E | Change Station

Current weather conditions updated 21 minutes ago

Clear
Clear
90 °F
Feels Like 90 °F
N
12
Wind Variable Wind from North
Sunrise 5:12 AM
Sunset 6:07 PM
Moon Waning Gibbous

Tomorrow is forecast to be nearly the same temperature as today.

Pressure 29.77 in
Visibility -9999.0 miles
Clouds
Dew Point 43 °F
Humidity 20%
Rainfall 0.00 in
Snow Depth Not available.
UV Not available.
Pollen Not available.
Air Quality Not available.
Flu Activity Not available.
METAR OEDF 201500Z 36010KT CAVOK 32/06 Q1008 NOSIG

More Conditions Fewer Conditions

Pressure 29.77 in
Visibility -9999.0 miles
Clouds
Dew Point 43 °F
Humidity 20%
Rainfall 0.00 in
Snow Depth Not available.
UV Not available.
Pollen Not available.
Air Quality Not available.
Flu Activity Not available.
METAR OEDF 201500Z 36010KT CAVOK 32/06 Q1008 NOSIG

More Conditions Fewer Conditions

10-Day Weather Forecast

Almanac

Astronomy

Apr. 20, 2014 Rise Set
Actual Time 5:12 AM AST 6:07 PM AST
Civil Twilight 4:49 AM AST 6:31 PM AST
Nautical Twilight 4:20 AM AST 6:59 PM AST
Astronomical Twilight 3:52 AM AST 7:28 PM AST
Moon 11:09 PM AST 9:20 AM AST
Length of Visible Light 13h 41m
Length of Day
12h 54m
Tomorrow will be 1m 27s longer.
Waning Gibbous, 69% of the Moon is Illuminated
Today
Waning Gibbous
Apr 22
Last Quarter
Apr 29
New
May 6
First Quarter
May 14
Full

Today's Extremes

Country Highs Country Lows

Community

  • Easter Sunrise
    Easter Sunrise
  • Happy Easter
    Happy Easter
  • EARLY FOGGY MORNING
    EARLY FOGGY MORNING
  • Easter Greetings
    Easter Greetings
  • Sunny day at the coast-Cape Arago Lighthouse
    Sunny day at the coast-Cape Arago Lighthouse

WunderPhotos

Upload Photos

1,703,253 photos uploaded!

Nearby

Snow Depth

Not available.

Coastal Water Temperatures

Place Temperature
No Stations Reporting

Earthquake Activity

City Distance Mag. Time & Date
No recent earthquake activity has been reported nearby.
Minimum magnitude displayed is 2.5.

Nearby Weather Stations

There are no personal weather stations in this area.

What do you think?

We're not finished. Please let us know what you like, what you don't like, and what you are still missing.